Time;durP1;ratioP1;P1;durP2;ratioP2;P2;SDS_P1;SDS_P2;PMS_P1;PMS_P2;Temp;Humidity;BMP_temperature;BMP_pressure;BME280_temperature;BME280_humidity;BME280_pressure;Samples;Min_cycle;Max_cycle;Signal;HPM_P1;HPM_P2
2021/05/10 00:02:24;;;;;;;12.75;7.68;;;;;;;22.68;46.07;99875.25;4901595;28;118139;-69
2021/05/10 00:04:52;;;;;;;9.20;7.85;;;;;;;22.68;46.02;99872.56;4918927;28;119291;-69
2021/05/10 00:07:18;;;;;;;10.48;7.60;;;;;;;22.67;46.14;99868.16;4909830;28;123817;-69
2021/05/10 00:09:45;;;;;;;9.93;7.55;;;;;;;22.66;46.33;99865.63;4918465;28;124358;-69
2021/05/10 00:12:13;;;;;;;7.97;7.00;;;;;;;22.64;46.10;99856.88;4916092;28;120938;-69
2021/05/10 00:14:48;;;;;;;9.05;7.75;;;;;;;22.62;46.31;99865.16;4917559;28;120278;-69
2021/05/10 00:17:15;;;;;;;7.75;6.93;;;;;;;22.61;46.23;99873.44;4914088;28;123877;-68
2021/05/10 00:19:42;;;;;;;8.50;6.82;;;;;;;22.57;46.27;99872.91;4925284;28;125672;-69
2021/05/10 00:22:08;;;;;;;7.90;7.10;;;;;;;22.54;46.34;99875.94;4922552;28;119725;-69
2021/05/10 00:24:35;;;;;;;6.78;5.82;;;;;;;22.52;46.37;99869.88;4921388;28;119239;-68
2021/05/10 00:27:02;;;;;;;7.20;6.00;;;;;;;22.52;46.06;99869.88;4917334;28;124584;-69
2021/05/10 00:29:28;;;;;;;7.65;5.35;;;;;;;22.50;46.20;99866.50;4908949;28;122709;-68
2021/05/10 00:31:55;;;;;;;8.50;5.20;;;;;;;22.49;46.02;99864.81;4902300;28;118426;-69
2021/05/10 00:34:22;;;;;;;9.27;4.40;;;;;;;22.48;45.85;99860.44;4912614;28;119239;-69
2021/05/10 00:36:48;;;;;;;11.48;4.25;;;;;;;22.48;45.66;99868.53;4901506;28;123888;-68
2021/05/10 00:39:15;;;;;;;6.18;3.33;;;;;;;22.48;45.57;99846.97;4921095;28;123644;-69
2021/05/10 00:41:41;;;;;;;7.15;3.50;;;;;;;22.48;45.31;99846.97;4903976;28;118828;-69
2021/05/10 00:44:08;;;;;;;7.13;2.80;;;;;;;22.50;45.11;99839.53;4910618;28;117887;-69
2021/05/10 00:46:36;;;;;;;8.25;3.00;;;;;;;22.51;44.90;99841.22;4913035;28;124142;-68
2021/05/10 00:49:03;;;;;;;6.30;2.92;;;;;;;22.53;44.83;99839.19;4922057;28;126826;-68
2021/05/10 00:51:31;;;;;;;5.97;2.63;;;;;;;22.55;44.66;99831.78;4920918;28;118118;-69
2021/05/10 00:53:57;;;;;;;6.97;2.90;;;;;;;22.56;44.57;99833.44;4916084;28;118958;-70
2021/05/10 00:56:24;;;;;;;4.85;2.30;;;;;;;22.57;44.38;99824.34;4917935;28;124256;-69
2021/05/10 00:58:51;;;;;;;6.15;2.53;;;;;;;22.59;44.29;99826.88;4916015;28;122735;-69
2021/05/10 01:01:17;;;;;;;3.35;2.03;;;;;;;22.60;44.09;99828.53;4918124;28;120452;-69
2021/05/10 01:03:49;;;;;;;5.15;2.33;;;;;;;22.61;43.91;99825.69;4915642;28;120645;-69
2021/05/10 01:06:16;;;;;;;3.35;2.20;;;;;;;22.65;43.62;99821.59;4904190;28;123893;-70
2021/05/10 01:08:43;;;;;;;3.38;2.08;;;;;;;22.68;43.48;99821.28;4909340;28;123898;-69
2021/05/10 01:11:09;;;;;;;3.40;2.38;;;;;;;22.71;43.36;99810.13;4915847;28;119879;-69
2021/05/10 01:13:36;;;;;;;6.15;2.13;;;;;;;22.75;43.27;99816.00;4905735;28;118367;-68
2021/05/10 01:16:03;;;;;;;4.07;2.08;;;;;;;22.80;43.08;99812.81;4914802;28;127676;-69
2021/05/10 01:18:31;;;;;;;5.90;2.22;;;;;;;22.82;42.95;99816.16;4923718;28;124410;-69
2021/05/10 01:21:01;;;;;;;6.28;2.10;;;;;;;22.85;42.90;99805.00;4912405;28;119327;-70
2021/05/10 01:23:28;;;;;;;3.40;2.25;;;;;;;22.89;42.72;99795.56;4919910;28;118940;-69
2021/05/10 01:25:55;;;;;;;6.15;2.38;;;;;;;22.92;42.55;99806.00;4914233;28;125134;-69
2021/05/10 01:28:22;;;;;;;2.88;1.95;;;;;;;22.94;42.46;99817.47;4910508;28;123932;-69
2021/05/10 01:30:50;;;;;;;4.32;2.13;;;;;;;22.96;42.32;99807.31;4920272;28;119367;-69
2021/05/10 01:33:21;;;;;;;4.13;2.10;;;;;;;22.98;42.35;99809.84;4908754;28;118475;-69
2021/05/10 01:35:50;;;;;;;4.60;2.45;;;;;;;22.98;42.37;99816.13;4911593;28;123556;-69
2021/05/10 01:38:18;;;;;;;6.00;2.17;;;;;;;22.97;42.21;99814.41;4921023;28;122177;-69
2021/05/10 01:40:48;;;;;;;6.30;2.20;;;;;;;22.96;42.31;99815.44;4909409;28;119365;-69
2021/05/10 01:43:16;;;;;;;4.25;1.98;;;;;;;22.93;42.18;99807.69;4913123;28;119207;-69
2021/05/10 01:45:44;;;;;;;3.08;1.92;;;;;;;22.92;42.14;99806.00;4908243;28;123754;-69
2021/05/10 01:48:13;;;;;;;5.22;2.15;;;;;;;22.89;42.48;99811.75;4904113;28;124392;-69
2021/05/10 01:50:44;;;;;;;4.53;2.10;;;;;;;22.86;42.33;99806.69;4912178;28;120430;-69
2021/05/10 01:53:12;;;;;;;4.43;2.28;;;;;;;22.81;42.33;99800.97;4905939;28;121408;-69
2021/05/10 01:55:39;;;;;;;5.13;2.38;;;;;;;22.78;42.22;99793.25;4910331;28;123992;-69
2021/05/10 01:58:07;;;;;;;4.05;2.20;;;;;;;22.76;41.95;99801.50;4905801;28;124072;-69
2021/05/10 02:00:39;;;;;;;4.47;2.00;;;;;;;22.74;41.82;99790.88;4914472;28;119128;-69
2021/05/10 02:03:12;;;;;;;8.05;2.10;;;;;;;22.74;41.48;99790.88;4909632;28;118164;-69
2021/05/10 02:05:39;;;;;;;4.55;1.90;;;;;;;22.77;41.26;99786.16;4922909;28;124335;-69
2021/05/10 02:08:08;;;;;;;2.83;1.85;;;;;;;22.80;41.01;99785.81;4920301;28;123900;-69
2021/05/10 02:10:40;;;;;;;4.00;1.90;;;;;;;22.85;40.67;99788.81;4907039;28;119661;-69
2021/05/10 02:13:08;;;;;;;4.00;1.95;;;;;;;22.91;40.47;99782.72;4905489;28;117862;-69
2021/05/10 02:15:42;;;;;;;4.80;1.88;;;;;;;22.97;40.14;99782.00;4914802;28;123801;-72
2021/05/10 02:18:09;;;;;;;3.78;1.83;;;;;;;23.02;40.30;99771.53;4909142;28;124107;-69
2021/05/10 02:20:37;;;;;;;3.30;1.83;;;;;;;23.07;40.09;99782.66;4899888;28;118724;-69
2021/05/10 02:23:07;;;;;;;4.07;2.00;;;;;;;23.12;40.06;99772.19;4914313;28;120168;-69
2021/05/10 02:25:39;;;;;;;4.13;1.80;;;;;;;23.16;40.13;99763.72;4914851;28;124744;-69
2021/05/10 02:28:08;;;;;;;4.10;2.28;;;;;;;23.18;39.73;99767.09;4904777;28;122981;-69
2021/05/10 02:30:35;;;;;;;4.93;2.10;;;;;;;23.19;39.75;99763.34;4915660;28;119505;-69
2021/05/10 02:33:05;;;;;;;4.60;1.73;;;;;;;23.21;39.58;99772.16;4936466;22;118687;-68
2021/05/10 02:35:32;;;;;;;3.85;1.77;;;;;;;23.22;39.67;99760.31;4915770;28;124128;-66
2021/05/10 02:37:59;;;;;;;4.38;1.80;;;;;;;23.24;39.45;99755.56;4911998;28;124022;-67
2021/05/10 02:40:25;;;;;;;3.60;1.70;;;;;;;23.26;39.35;99764.34;4912420;28;121181;-67
2021/05/10 02:42:52;;;;;;;2.35;1.50;;;;;;;23.26;39.31;99759.78;4908828;28;120273;-66
2021/05/10 02:45:20;;;;;;;4.78;1.65;;;;;;;23.30;39.15;99757.56;4908644;28;123701;-67
2021/05/10 02:47:47;;;;;;;3.90;1.70;;;;;;;23.31;39.23;99756.53;4912519;28;124311;-67
2021/05/10 02:50:18;;;;;;;5.60;1.77;;;;;;;23.33;39.07;99757.19;4906306;28;119203;-66
2021/05/10 02:52:46;;;;;;;3.42;1.58;;;;;;;23.34;38.88;99761.59;4907831;28;118886;-67
2021/05/10 02:55:13;;;;;;;6.63;1.50;;;;;;;23.35;38.74;99763.25;4907412;28;123590;-67
2021/05/10 02:57:41;;;;;;;3.90;1.70;;;;;;;23.36;38.71;99764.97;4909268;28;124131;-67
2021/05/10 03:00:13;;;;;;;6.68;1.88;;;;;;;23.36;39.80;99767.66;4911167;28;119217;-68
2021/05/10 03:02:40;;;;;;;5.05;1.70;;;;;;;23.36;39.55;99759.56;4912305;28;119206;-66
2021/05/10 03:05:10;;;;;;;3.53;1.73;;;;;;;23.33;39.45;99762.59;4909053;28;124049;-67
2021/05/10 03:07:37;;;;;;;4.55;1.50;;;;;;;23.32;39.62;99752.84;4908367;28;123645;-67
2021/05/10 03:10:06;;;;;;;5.03;1.67;;;;;;;23.32;39.62;99755.53;4906842;28;119143;-67
2021/05/10 03:12:33;;;;;;;6.97;1.88;;;;;;;23.30;39.84;99744.91;4911591;28;118759;-67
2021/05/10 03:14:59;;;;;;;2.92;1.40;;;;;;;23.30;39.55;99755.72;4910384;28;123993;-67
2021/05/10 03:17:26;;;;;;;5.20;1.40;;;;;;;23.30;39.55;99754.84;4904057;28;123314;-67
2021/05/10 03:19:53;;;;;;;3.90;1.70;;;;;;;23.28;39.55;99757.75;4912159;28;119621;-68
2021/05/10 03:22:19;;;;;;;5.72;1.52;;;;;;;23.28;39.29;99757.75;4909591;28;119110;-67
2021/05/10 03:24:46;;;;;;;3.55;1.52;;;;;;;23.29;39.25;99755.88;4910524;28;123816;-67
2021/05/10 03:27:13;;;;;;;4.13;1.58;;;;;;;23.30;39.20;99749.44;4908975;28;123910;-67
2021/05/10 03:29:39;;;;;;;5.60;1.80;;;;;;;23.31;38.96;99756.53;4908818;28;120747;-67
2021/05/10 03:32:06;;;;;;;3.92;1.60;;;;;;;23.33;38.85;99763.44;4899142;28;120567;-68
2021/05/10 03:34:33;;;;;;;2.72;1.50;;;;;;;23.36;38.72;99759.56;4912976;28;123883;-67
2021/05/10 03:36:59;;;;;;;3.60;1.52;;;;;;;23.40;38.48;99766.28;4917492;28;123742;-67
2021/05/10 03:39:26;;;;;;;5.50;1.60;;;;;;;23.44;38.30;99759.50;4914733;28;118392;-67
2021/05/10 03:41:53;;;;;;;3.13;1.40;;;;;;;23.48;38.15;99760.81;4915720;28;118754;-67
2021/05/10 03:44:19;;;;;;;3.15;1.48;;;;;;;23.50;38.13;99761.47;4910008;28;123103;-67
2021/05/10 03:46:46;;;;;;;5.95;1.88;;;;;;;23.54;38.13;99764.66;4913713;28;123034;-67
2021/05/10 03:49:13;;;;;;;4.15;1.45;;;;;;;23.57;37.92;99763.47;4909878;28;118449;-67
2021/05/10 03:51:39;;;;;;;2.97;1.42;;;;;;;23.58;38.10;99763.28;4912737;28;119860;-67
2021/05/10 03:54:06;;;;;;;4.97;1.42;;;;;;;23.60;37.85;99765.78;4915278;28;123329;-67
2021/05/10 03:56:32;;;;;;;3.33;1.40;;;;;;;23.62;37.61;99763.75;4907955;28;123169;-67
2021/05/10 03:58:59;;;;;;;1.77;1.30;;;;;;;23.65;37.61;99768.81;4916480;28;119623;-67
2021/05/10 04:01:25;;;;;;;4.85;1.42;;;;;;;23.65;37.36;99766.09;4913753;28;120968;-67
2021/05/10 04:04:03;;;;;;;2.78;1.27;;;;;;;23.68;37.45;99765.75;4907433;28;124462;-67
2021/05/10 04:14:22;;;;;;;4.25;1.50;;;;;;;23.73;37.32;99782.25;4909084;28;123829;-67
2021/05/10 04:16:48;;;;;;;4.78;1.50;;;;;;;23.75;36.99;99769.38;4912456;28;124583;-68
2021/05/10 04:19:15;;;;;;;4.38;1.67;;;;;;;23.78;36.99;99763.63;4913043;28;120973;-67
2021/05/10 04:21:43;;;;;;;3.63;1.30;;;;;;;23.79;37.17;99773.47;4914689;28;120203;-67
2021/05/10 04:24:10;;;;;;;5.13;1.40;;;;;;;23.81;37.10;99773.25;4907532;28;123244;-67
2021/05/10 04:26:36;;;;;;;8.32;1.70;;;;;;;23.82;36.95;99777.66;4913459;28;123856;-67
2021/05/10 04:29:03;;;;;;;3.47;1.33;;;;;;;23.82;37.14;99792.03;4911968;28;119640;-68
2021/05/10 04:31:30;;;;;;;5.15;1.45;;;;;;;23.82;36.95;99808.25;4914751;28;118955;-68
2021/05/10 04:33:56;;;;;;;2.80;1.52;;;;;;;23.83;36.83;99804.53;4915950;28;123985;-68
2021/05/10 04:36:23;;;;;;;6.93;1.77;;;;;;;23.83;36.96;99796.41;4917219;28;124158;-68
2021/05/10 04:38:50;;;;;;;6.63;1.70;;;;;;;23.83;37.38;99811.81;4917061;28;119125;-68
2021/05/10 04:41:16;;;;;;;5.90;1.63;;;;;;;23.82;37.59;99819.06;4913427;28;120316;-68
2021/05/10 04:43:43;;;;;;;4.65;1.83;;;;;;;23.80;37.52;99831.94;4912476;28;124035;-68
2021/05/10 04:46:10;;;;;;;3.00;1.30;;;;;;;23.77;37.70;99837.69;4913162;28;124277;-67
2021/05/10 04:48:37;;;;;;;7.30;1.60;;;;;;;23.72;37.91;99834.66;4912819;28;120309;-67
2021/05/10 04:51:04;;;;;;;5.68;1.48;;;;;;;23.69;37.98;99843.13;4913421;28;119191;-68
2021/05/10 04:53:30;;;;;;;6.07;1.40;;;;;;;23.66;38.13;99851.59;4911696;28;124586;-67
2021/05/10 04:55:57;;;;;;;3.65;1.80;;;;;;;23.62;38.38;99858.38;4913232;28;125417;-67
2021/05/10 04:58:24;;;;;;;9.05;2.00;;;;;;;23.58;38.41;99875.97;4911324;28;119782;-68
2021/05/10 05:00:50;;;;;;;12.00;2.10;;;;;;;23.54;38.88;99885.44;4912918;28;118592;-67
2021/05/10 05:03:17;;;;;;;8.32;2.03;;;;;;;23.48;39.43;99893.25;4914014;28;124044;-68
2021/05/10 05:05:44;;;;;;;7.07;2.05;;;;;;;23.40;39.80;99878.94;4912579;28;124615;-68
2021/05/10 05:08:10;;;;;;;5.53;2.00;;;;;;;23.30;40.25;99890.81;4912789;28;121153;-68
2021/05/10 05:10:37;;;;;;;16.08;1.80;;;;;;;23.23;40.57;99888.97;4911501;28;119664;-67
2021/05/10 05:13:03;;;;;;;6.60;1.80;;;;;;;23.16;40.72;99882.59;4910967;28;124147;-67
2021/05/10 05:15:33;;;;;;;7.57;1.70;;;;;;;23.08;41.24;99870.78;4910464;28;124481;-67
2021/05/10 05:18:00;;;;;;;2.40;1.45;;;;;;;23.03;41.20;99870.47;4914796;28;119952;-67
2021/05/10 05:20:26;;;;;;;4.35;1.80;;;;;;;22.99;41.45;99871.81;4895352;28;119276;-67
2021/05/10 05:22:53;;;;;;;5.28;1.58;;;;;;;22.94;41.79;99884.97;4914637;28;124111;-68
2021/05/10 05:25:19;;;;;;;3.05;1.40;;;;;;;22.89;42.01;99892.78;4905605;28;123866;-67
2021/05/10 05:27:46;;;;;;;5.10;1.52;;;;;;;22.85;42.05;99894.97;4907727;28;118489;-67
2021/05/10 05:30:13;;;;;;;4.95;1.45;;;;;;;22.81;42.21;99900.88;4910151;28;119244;-67
2021/05/10 05:32:40;;;;;;;3.88;1.60;;;;;;;22.77;42.33;99942.72;4909187;28;124684;-66
2021/05/10 05:35:07;;;;;;;2.65;1.50;;;;;;;22.72;42.65;99971.09;4919157;28;124625;-67
2021/05/10 05:37:34;;;;;;;2.92;1.60;;;;;;;22.66;42.82;99984.41;4906207;28;118609;-67
2021/05/10 05:40:03;;;;;;;3.60;1.60;;;;;;;22.60;43.15;100002.13;4907334;28;118635;-68
2021/05/10 05:42:32;;;;;;;3.67;1.60;;;;;;;22.53;43.47;99995.72;4906688;28;123990;-67
2021/05/10 05:44:59;;;;;;;2.90;1.80;;;;;;;22.46;43.62;100000.09;4922842;28;124346;-69
2021/05/10 05:47:28;;;;;;;4.22;1.55;;;;;;;22.41;44.17;100007.84;4911785;28;119575;-70
2021/05/10 05:49:55;;;;;;;4.07;1.58;;;;;;;22.34;44.01;100013.06;4929182;28;119060;-70
2021/05/10 05:52:22;;;;;;;2.08;1.20;;;;;;;22.27;44.07;100017.44;4914247;28;124714;-68
2021/05/10 05:54:52;;;;;;;3.33;1.17;;;;;;;22.20;44.05;100033.38;4912014;28;124091;-70
2021/05/10 05:57:19;;;;;;;2.28;1.40;;;;;;;22.15;44.33;100044.69;4923644;28;120598;-68
2021/05/10 05:59:46;;;;;;;1.95;1.00;;;;;;;22.11;44.37;100055.94;4906422;28;119414;-68
2021/05/10 06:02:13;;;;;;;2.95;1.00;;;;;;;22.07;44.40;100059.97;4908288;28;124756;-68
2021/05/10 06:04:39;;;;;;;2.47;1.20;;;;;;;22.05;44.55;100067.41;4914644;28;124353;-68
2021/05/10 06:07:06;;;;;;;3.22;1.17;;;;;;;22.01;44.56;100071.44;4916448;28;119547;-68
2021/05/10 06:09:32;;;;;;;3.25;1.20;;;;;;;21.99;44.94;100068.06;4913276;28;119231;-68
2021/05/10 06:11:59;;;;;;;2.15;1.20;;;;;;;21.99;44.96;100084.22;4906684;28;124551;-69
2021/05/10 06:14:25;;;;;;;2.67;1.42;;;;;;;21.96;45.14;100088.94;4910593;28;123805;-71
2021/05/10 06:16:52;;;;;;;2.22;1.30;;;;;;;21.94;45.03;100093.66;4910018;28;119893;-68
2021/05/10 06:19:19;;;;;;;4.90;1.60;;;;;;;21.90;45.36;100092.25;4921712;28;119446;-68
2021/05/10 06:21:45;;;;;;;3.38;1.40;;;;;;;21.86;45.33;100101.69;4927662;28;124823;-68
2021/05/10 06:24:14;;;;;;;2.13;1.10;;;;;;;21.83;45.52;100096.63;4907737;28;123827;-68
2021/05/10 06:26:43;;;;;;;2.80;1.38;;;;;;;21.81;45.71;100104.00;4924018;28;119400;-68
2021/05/10 06:29:10;;;;;;;4.03;1.33;;;;;;;21.82;45.79;100100.31;4902053;28;118454;-69
2021/05/10 06:31:37;;;;;;;3.30;1.30;;;;;;;21.87;45.84;100100.69;4901387;28;123193;-69
2021/05/10 06:34:06;;;;;;;2.80;1.50;;;;;;;21.96;45.79;100112.34;4908807;28;124731;-70
2021/05/10 06:36:33;;;;;;;3.90;1.40;;;;;;;22.06;46.15;100123.88;4909264;28;119372;-69
2021/05/10 06:39:00;;;;;;;3.10;1.33;;;;;;;22.15;45.87;100122.03;4909997;28;120141;-70
2021/05/10 06:41:26;;;;;;;2.28;1.20;;;;;;;22.21;45.42;100120.53;4915783;28;124432;-70
2021/05/10 06:43:53;;;;;;;4.47;1.40;;;;;;;22.24;45.16;100120.22;4899544;28;122645;-70
2021/05/10 06:46:19;;;;;;;2.67;1.27;;;;;;;22.22;45.20;100128.47;4912687;28;119756;-70
2021/05/10 06:48:46;;;;;;;3.00;1.33;;;;;;;22.24;45.11;100115.66;4909913;28;119216;-70
2021/05/10 06:51:13;;;;;;;5.43;1.30;;;;;;;22.24;45.20;100121.06;4907638;28;122924;-69
2021/05/10 06:53:39;;;;;;;3.15;1.27;;;;;;;22.24;44.91;100126.47;4919478;28;124608;-70
2021/05/10 06:56:06;;;;;;;2.50;1.30;;;;;;;22.20;45.01;100108.91;4923152;28;119739;-68
2021/05/10 06:58:32;;;;;;;3.30;1.20;;;;;;;22.18;45.03;100132.50;4904702;28;118097;-69
2021/05/10 07:00:59;;;;;;;2.67;1.40;;;;;;;22.18;45.01;100127.13;4905995;28;123528;-69
2021/05/10 07:03:25;;;;;;;3.30;1.60;;;;;;;22.17;45.15;100138.94;4910968;28;123854;-69
2021/05/10 07:05:52;;;;;;;4.03;1.60;;;;;;;22.17;45.13;100141.63;4917424;28;119184;-69
2021/05/10 07:08:19;;;;;;;6.68;1.70;;;;;;;22.19;45.32;100138.75;4906322;28;119623;-68
2021/05/10 07:10:48;;;;;;;1.48;1.30;;;;;;;22.26;45.69;100164.94;4912207;28;127399;-68
2021/05/10 07:13:15;;;;;;;2.63;1.70;;;;;;;22.37;45.45;100162.97;4927546;28;124231;-68
2021/05/10 07:15:42;;;;;;;2.30;1.45;;;;;;;22.39;45.15;100158.25;4929478;28;119168;-68
2021/05/10 07:18:10;;;;;;;4.13;1.52;;;;;;;22.38;44.97;100164.66;4904282;28;119733;-68
2021/05/10 07:20:39;;;;;;;2.80;1.80;;;;;;;22.38;44.74;100153.84;4911786;28;123691;-68
2021/05/10 07:23:10;;;;;;;2.75;1.40;;;;;;;22.39;44.93;100160.97;4895706;28;123335;-68
2021/05/10 07:25:46;;;;;;;4.30;1.67;;;;;;;22.42;44.95;100166.03;4921160;28;118874;-70
2021/05/10 07:28:16;;;;;;;5.47;1.60;;;;;;;22.46;44.75;100176.34;4907989;28;119113;-70
2021/05/10 07:30:45;;;;;;;2.60;1.50;;;;;;;22.50;44.81;100168.75;4928827;28;124122;-69
2021/05/10 07:33:12;;;;;;;3.30;1.40;;;;;;;22.52;44.66;100174.84;4896320;28;123808;-69
2021/05/10 07:35:39;;;;;;;3.67;1.50;;;;;;;22.54;44.65;100186.31;4913481;28;120568;-70
2021/05/10 07:38:06;;;;;;;4.00;1.75;;;;;;;22.60;44.63;100201.84;4913276;28;119233;-68
2021/05/10 07:40:33;;;;;;;4.35;1.70;;;;;;;22.64;44.67;100213.16;4913796;28;123264;-68
2021/05/10 07:43:01;;;;;;;3.22;1.52;;;;;;;22.67;44.45;100202.88;4920241;28;124515;-69
2021/05/10 07:45:28;;;;;;;4.15;1.40;;;;;;;22.64;44.36;100214.03;4914124;28;119671;-69
2021/05/10 07:48:00;;;;;;;3.63;1.60;;;;;;;22.63;44.45;100233.91;4914041;28;118849;-69
2021/05/10 07:50:27;;;;;;;7.55;1.50;;;;;;;22.61;44.47;100225.16;4909174;28;124575;-69
2021/05/10 07:52:57;;;;;;;3.42;1.42;;;;;;;22.57;44.32;100229.19;4905114;28;123194;-69
2021/05/10 07:55:24;;;;;;;6.18;1.80;;;;;;;22.51;44.25;100229.84;4920715;28;118771;-69
2021/05/10 07:57:53;;;;;;;2.60;1.60;;;;;;;22.45;44.46;100235.84;4923220;28;118860;-69
2021/05/10 08:01:01;;;;;;;4.65;1.80;;;;;;;22.38;44.54;100229.41;4921124;28;125067;-69
2021/05/10 08:03:18;;;;;;;2.53;1.75;;;;;;;22.31;44.74;100219.25;4916526;28;124411;-69
2021/05/10 08:05:45;;;;;;;3.03;1.60;;;;;;;22.29;44.83;100220.44;4902205;28;119671;-71
2021/05/10 08:08:16;;;;;;;3.75;1.55;;;;;;;22.26;44.71;100220.75;4922393;28;119217;-69
2021/05/10 08:10:44;;;;;;;3.13;1.60;;;;;;;22.23;45.01;100238.09;4902810;28;124110;-69
2021/05/10 08:13:11;;;;;;;1.83;1.30;;;;;;;22.20;45.15;100230.31;4922584;28;123755;-69
2021/05/10 08:15:38;;;;;;;3.25;1.70;;;;;;;22.20;45.38;100238.41;4928812;28;120162;-69
2021/05/10 08:18:05;;;;;;;2.85;1.33;;;;;;;22.19;44.97;100250.22;4915545;28;119123;-69
2021/05/10 08:20:40;;;;;;;2.60;1.60;;;;;;;22.16;44.96;100247.81;4895548;28;124482;-69
2021/05/10 08:23:08;;;;;;;2.38;1.40;;;;;;;22.13;44.99;100245.44;4914843;28;123797;-67
2021/05/10 08:25:35;;;;;;;2.67;1.40;;;;;;;22.09;45.12;100252.16;4896881;28;119903;-69
2021/05/10 08:28:03;;;;;;;2.75;1.42;;;;;;;22.03;45.21;100263.56;4914365;28;119691;-68
2021/05/10 08:30:29;;;;;;;4.43;1.50;;;;;;;21.96;45.01;100257.94;4918506;28;124489;-68
2021/05/10 08:32:58;;;;;;;3.63;1.58;;;;;;;21.89;45.10;100273.94;4909008;28;124117;-69
2021/05/10 08:35:25;;;;;;;2.83;1.40;;;;;;;21.83;45.57;100301.53;4916846;28;119688;-70
2021/05/10 08:38:02;;;;;;;4.37;2.07;;;;;;;21.75;45.76;100320.31;4939492;22;119408;-70
2021/05/10 08:40:30;;;;;;;2.53;1.45;;;;;;;21.51;45.75;100324.47;4931450;28;125784;-70
2021/05/10 08:42:58;;;;;;;2.75;1.60;;;;;;;21.23;46.20;100304.78;4947305;28;125227;-70
2021/05/10 08:45:26;;;;;;;2.50;1.50;;;;;;;20.92;46.40;100323.91;4924881;28;119689;-72
2021/05/10 08:47:57;;;;;;;2.72;1.50;;;;;;;20.62;47.23;100343.88;4950230;28;120717;-71
2021/05/10 08:50:24;;;;;;;2.80;1.67;;;;;;;20.32;47.66;100353.81;4944041;28;124413;-71
2021/05/10 08:52:51;;;;;;;3.65;1.60;;;;;;;20.03;48.13;100349.34;4943718;28;123975;-72
2021/05/10 08:55:17;;;;;;;2.47;1.50;;;;;;;19.79;48.56;100346.22;4940499;28;120091;-71
2021/05/10 08:57:44;;;;;;;1.90;1.55;;;;;;;19.57;49.17;100361.59;4944914;28;119105;-71
2021/05/10 09:00:15;;;;;;;2.10;1.52;;;;;;;19.40;49.62;100367.63;4943972;28;124931;-72
2021/05/10 09:02:42;;;;;;;2.00;1.58;;;;;;;19.24;50.11;100358.28;4941600;28;124088;-72
2021/05/10 09:05:11;;;;;;;2.35;1.90;;;;;;;19.13;50.42;100366.44;4922949;28;118677;-70
2021/05/10 09:07:38;;;;;;;3.35;1.60;;;;;;;19.05;51.22;100368.97;4929961;28;121352;-71
2021/05/10 09:10:07;;;;;;;2.05;1.70;;;;;;;19.04;51.71;100361.88;4932693;28;124248;-71
2021/05/10 09:12:55;;;;;;;3.38;1.63;;;;;;;19.05;51.75;100368.97;4933593;28;123801;-71
2021/05/10 09:15:27;;;;;;;2.88;1.90;;;;;;;19.07;52.05;100367.00;4915165;28;121130;-71
2021/05/10 09:17:56;;;;;;;3.50;2.45;;;;;;;19.08;52.46;100368.69;4932324;28;120071;-70
2021/05/10 09:20:29;;;;;;;4.38;2.20;;;;;;;19.12;52.91;100374.63;4942973;28;123342;-70
2021/05/10 09:22:58;;;;;;;3.55;2.30;;;;;;;19.15;53.07;100369.81;4945400;28;126262;-69
2021/05/10 09:25:35;;;;;;;3.85;2.15;;;;;;;19.19;53.17;100371.28;4923334;28;118058;-70
2021/05/10 09:28:11;;;;;;;5.03;2.58;;;;;;;19.25;53.33;100381.47;4946071;28;118563;-70
2021/05/10 09:30:39;;;;;;;6.13;2.10;;;;;;;19.33;53.48;100393.38;4952512;28;124103;-69
2021/05/10 09:33:06;;;;;;;3.17;2.20;;;;;;;19.38;53.53;100380.34;4956994;28;124964;-70
2021/05/10 09:35:32;;;;;;;3.65;2.38;;;;;;;19.43;53.69;100388.84;4921920;28;118684;-71
2021/05/10 09:38:02;;;;;;;3.50;2.38;;;;;;;19.48;54.16;100397.34;4920547;28;118758;-69
2021/05/10 09:40:41;;;;;;;5.00;2.38;;;;;;;19.54;54.08;100404.84;4938168;28;122422;-71
2021/05/10 09:43:10;;;;;;;3.25;2.50;;;;;;;19.59;54.21;100405.31;4944804;28;124548;-70
2021/05/10 09:45:38;;;;;;;3.25;2.72;;;;;;;19.62;54.37;100396.94;4921210;28;118388;-71
2021/05/10 09:48:13;;;;;;;3.67;2.60;;;;;;;19.67;53.98;100395.69;4918579;28;118050;-71
2021/05/10 09:51:06;;;;;;;3.35;2.50;;;;;;;19.69;53.98;100420.59;5005852;28;96635;-71
2021/05/10 09:53:59;;;;;;;3.40;2.30;;;;;;;19.68;53.63;100424.25;4999175;28;106655;-72
2021/05/10 09:56:31;;;;;;;4.72;2.58;;;;;;;19.70;53.78;100427.66;4991787;28;123154;-72
2021/05/10 09:59:01;;;;;;;2.78;2.00;;;;;;;19.69;53.98;100448.31;4988059;28;123164;-70
2021/05/10 10:01:39;;;;;;;3.58;2.13;;;;;;;19.71;53.89;100456.22;4988252;28;107441;-70
2021/05/10 10:04:05;;;;;;;;;;;;;;;19.68;52.93;100456.50;4995381;28;106802;-70
2021/05/10 10:06:32;;;;;;;5.22;2.38;;;;;;;19.68;53.20;100453.81;4982426;28;125191;-70
2021/05/10 10:08:59;;;;;;;3.67;2.10;;;;;;;19.67;53.59;100460.19;4983729;28;123936;-71
2021/05/10 10:11:27;;;;;;;2.40;2.10;;;;;;;19.67;53.77;100454.81;4970865;28;106378;-70
2021/05/10 10:13:56;;;;;;;3.35;2.15;;;;;;;19.65;53.73;100469.22;4981438;28;108007;-70
2021/05/10 10:16:24;;;;;;;5.45;2.20;;;;;;;19.67;54.01;100460.19;4987275;28;124520;-70
2021/05/10 10:18:53;;;;;;;4.13;2.20;;;;;;;19.71;54.15;100456.22;4978539;28;124293;-70
2021/05/10 10:21:21;;;;;;;5.68;2.17;;;;;;;19.77;54.24;100461.06;4989144;28;107252;-70
2021/05/10 10:24:02;;;;;;;2.88;2.13;;;;;;;19.83;54.09;100455.13;4992078;28;107243;-70
2021/05/10 10:26:50;;;;;;;4.57;2.58;;;;;;;19.90;54.40;100458.97;4987977;28;124732;-70
2021/05/10 10:29:19;;;;;;;4.05;2.45;;;;;;;20.00;54.60;100473.31;4988097;28;124132;-71
2021/05/10 10:31:47;;;;;;;3.35;2.40;;;;;;;20.10;54.18;100485.88;4983808;28;108095;-70
2021/05/10 10:34:25;;;;;;;5.07;2.30;;;;;;;20.16;53.87;100485.34;4972393;28;107526;-71
2021/05/10 10:36:55;;;;;;;2.40;2.17;;;;;;;20.21;53.40;100496.50;4970454;28;122772;-70
2021/05/10 10:39:23;;;;;;;5.03;2.38;;;;;;;20.23;53.25;100494.56;4972244;28;123831;-71
2021/05/10 10:41:53;;;;;;;3.90;2.47;;;;;;;20.25;53.14;100481.81;4975239;28;108192;-71
2021/05/10 10:44:32;;;;;;;4.50;2.50;;;;;;;20.29;53.13;100483.22;4978333;28;106203;-70
2021/05/10 10:47:00;;;;;;;3.50;2.55;;;;;;;20.33;53.03;100487.31;4989890;28;124163;-71
2021/05/10 10:49:38;;;;;;;3.78;2.50;;;;;;;20.37;53.03;100486.03;4992234;28;123814;-70
2021/05/10 10:52:23;;;;;;;4.20;2.63;;;;;;;20.41;52.59;100492.84;4990127;28;107654;-71
2021/05/10 10:55:14;;;;;;;4.97;2.47;;;;;;;20.42;52.24;100489.16;5002723;28;106255;-71
2021/05/10 10:57:41;;;;;;;3.53;2.38;;;;;;;20.45;52.24;100497.94;4977219;28;121945;-71
2021/05/10 11:00:10;;;;;;;5.20;2.38;;;;;;;20.47;52.02;100502.19;4986195;28;123746;-71
2021/05/10 11:02:55;;;;;;;3.25;2.08;;;;;;;20.47;51.66;100504.03;4974148;28;107261;-71
2021/05/10 11:05:24;;;;;;;4.70;2.28;;;;;;;20.51;51.73;100513.50;4972253;28;106738;-71
2021/05/10 11:08:01;;;;;;;5.38;2.30;;;;;;;20.56;51.64;100519.31;4971812;28;123959;-71
2021/05/10 11:10:42;;;;;;;4.70;2.00;;;;;;;20.62;51.44;100532.22;4971065;28;124244;-70
2021/05/10 11:13:29;;;;;;;3.83;2.17;;;;;;;20.68;51.17;100547.84;4986907;28;107423;-71
2021/05/10 11:16:00;;;;;;;5.07;2.28;;;;;;;20.73;50.76;100548.25;4973148;28;107233;-71
2021/05/10 11:18:37;;;;;;;3.38;2.20;;;;;;;20.76;50.72;100550.66;4972960;28;123399;-71
2021/05/10 11:21:07;;;;;;;3.33;2.22;;;;;;;20.77;50.59;100546.13;4973748;28;123078;-70
2021/05/10 11:23:37;;;;;;;3.75;2.00;;;;;;;20.77;50.15;100541.56;4975291;28;107521;-70
2021/05/10 11:26:07;;;;;;;3.83;1.90;;;;;;;20.80;49.70;100538.59;4975542;28;107875;-71
2021/05/10 11:28:33;;;;;;;5.15;2.08;;;;;;;20.81;49.88;100560.97;4973845;28;126560;-70
2021/05/10 11:31:03;;;;;;;3.63;2.00;;;;;;;20.80;49.80;100552.06;4975213;28;123757;-70
2021/05/10 11:33:52;;;;;;;3.88;1.95;;;;;;;20.80;49.79;100557.44;4962308;28;107378;-71
2021/05/10 11:36:23;;;;;;;3.88;2.17;;;;;;;20.84;49.62;100557.19;4975072;28;107604;-70
2021/05/10 11:39:10;;;;;;;5.95;2.03;;;;;;;20.85;49.67;100558.84;4972221;28;124115;-70